Time;durP1;ratioP1;P1;durP2;ratioP2;P2;SDS_P1;SDS_P2;PMS_P1;PMS_P2;Temp;Humidity;BMP_temperature;BMP_pressure;BME280_temperature;BME280_humidity;BME280_pressure;Samples;Min_cycle;Max_cycle;Signal;HPM_P1;HPM_P2
2022/11/03 00:00:01;;;;;;;12.80;7.40;;;;;;;;;;5015647;28;20032;-72
2022/11/03 00:02:27;;;;;;;10.30;6.68;;;;;;;;;;5022879;28;20473;-72
2022/11/03 00:04:53;;;;;;;10.77;7.20;;;;;;;;;;5018788;28;20028;-72
2022/11/03 00:07:21;;;;;;;14.20;7.25;;;;;;;;;;5013187;28;20029;-72
2022/11/03 00:09:47;;;;;;;11.18;6.78;;;;;;;;;;5020627;28;20017;-72
2022/11/03 00:12:13;;;;;;;10.85;7.10;;;;;;;;;;5018224;28;20033;-72
2022/11/03 00:14:39;;;;;;;15.20;7.72;;;;;;;;;;5017368;28;20013;-72
2022/11/03 00:17:05;;;;;;;11.75;7.32;;;;;;;;;;5048129;28;20033;-72
2022/11/03 00:19:31;;;;;;;13.52;7.10;;;;;;;;;;5020234;28;20083;-72
2022/11/03 00:21:58;;;;;;;9.35;7.57;;;;;;;;;;5014745;28;20022;-72
2022/11/03 00:24:24;;;;;;;10.35;7.13;;;;;;;;;;5022980;28;20053;-72
2022/11/03 00:26:50;;;;;;;13.90;7.38;;;;;;;;;;5021787;28;20038;-72
2022/11/03 00:29:16;;;;;;;9.05;7.53;;;;;;;;;;5011989;28;20021;-72
2022/11/03 00:31:43;;;;;;;13.70;7.70;;;;;;;;;;5023552;28;20108;-73
2022/11/03 00:34:10;;;;;;;10.95;7.57;;;;;;;;;;5018810;28;20589;-73
2022/11/03 00:36:39;;;;;;;9.40;7.60;;;;;;;;;;5020187;28;20030;-72
2022/11/03 00:39:06;;;;;;;11.13;6.85;;;;;;;;;;5019247;28;20045;-72
2022/11/03 00:41:32;;;;;;;10.15;7.18;;;;;;;;;;5025246;28;20060;-73
2022/11/03 00:43:59;;;;;;;9.73;6.95;;;;;;;;;;5020144;28;20082;-74
2022/11/03 00:46:25;;;;;;;9.25;7.13;;;;;;;;;;5020269;28;20041;-72
2022/11/03 00:48:52;;;;;;;11.95;7.47;;;;;;;;;;5018458;28;20014;-72
2022/11/03 00:51:18;;;;;;;17.85;7.20;;;;;;;;;;5024387;28;20389;-72
2022/11/03 00:53:57;;;;;;;12.45;7.15;;;;;;;;;;5020751;28;20017;-72
2022/11/03 00:56:25;;;;;;;12.52;6.97;;;;;;;;;;5019988;28;20028;-72
2022/11/03 00:58:52;;;;;;;13.07;7.15;;;;;;;;;;5020475;28;20628;-72
2022/11/03 01:01:25;;;;;;;15.75;7.60;;;;;;;;;;5058984;28;20025;-72
2022/11/03 01:06:51;;;;;;;10.95;7.70;;;;;;;;;;5020750;28;20044;-73
2022/11/03 01:09:17;;;;;;;10.07;6.80;;;;;;;;;;5019856;28;20044;-72
2022/11/03 01:11:50;;;;;;;13.98;7.22;;;;;;;;;;5024771;28;20028;-72
2022/11/03 01:14:16;;;;;;;10.57;6.85;;;;;;;;;;5014891;28;20026;-72
2022/11/03 01:16:42;;;;;;;9.57;6.88;;;;;;;;;;5024152;28;20029;-72
2022/11/03 01:19:09;;;;;;;9.57;6.97;;;;;;;;;;5019294;28;20091;-72
2022/11/03 01:21:35;;;;;;;13.98;7.50;;;;;;;;;;5021822;28;20024;-73
2022/11/03 01:24:02;;;;;;;10.63;6.90;;;;;;;;;;5022425;28;20128;-72
2022/11/03 01:26:28;;;;;;;14.68;6.95;;;;;;;;;;5017148;28;20033;-72
2022/11/03 01:28:54;;;;;;;13.98;6.95;;;;;;;;;;5021970;28;20094;-72
2022/11/03 01:31:22;;;;;;;11.13;6.75;;;;;;;;;;5021455;28;20076;-72
2022/11/03 01:33:52;;;;;;;8.25;6.05;;;;;;;;;;5021885;28;20030;-72
2022/11/03 01:36:19;;;;;;;10.10;6.80;;;;;;;;;;5018111;28;20077;-74
2022/11/03 01:38:45;;;;;;;15.00;6.97;;;;;;;;;;5020372;28;20045;-73
2022/11/03 01:41:20;;;;;;;7.53;6.18;;;;;;;;;;5016128;28;20037;-73
2022/11/03 01:44:06;;;;;;;9.48;6.95;;;;;;;;;;5016896;28;20057;-73
2022/11/03 01:46:33;;;;;;;11.63;6.97;;;;;;;;;;5018994;28;20111;-72
2022/11/03 01:49:03;;;;;;;12.77;7.07;;;;;;;;;;5023271;28;20025;-72
2022/11/03 01:51:31;;;;;;;10.10;6.60;;;;;;;;;;5021911;28;20401;-72
2022/11/03 01:53:58;;;;;;;13.23;7.00;;;;;;;;;;5017472;28;20021;-73
2022/11/03 01:56:25;;;;;;;12.75;7.00;;;;;;;;;;5014878;28;20083;-72
2022/11/03 01:58:53;;;;;;;10.25;7.18;;;;;;;;;;5015936;28;20033;-73
2022/11/03 02:01:20;;;;;;;11.00;6.88;;;;;;;;;;5018066;28;20557;-73
2022/11/03 02:03:51;;;;;;;12.82;7.13;;;;;;;;;;5020062;28;20032;-73
2022/11/03 02:06:19;;;;;;;10.30;6.97;;;;;;;;;;5015875;28;20029;-73
2022/11/03 02:08:48;;;;;;;12.73;7.38;;;;;;;;;;5017677;28;20160;-73
2022/11/03 02:13:59;;;;;;;13.65;7.60;;;;;;;;;;5019149;28;20036;-73
2022/11/03 02:16:26;;;;;;;10.60;6.82;;;;;;;;;;5013550;28;20041;-73
2022/11/03 02:18:53;;;;;;;11.52;6.93;;;;;;;;;;5020428;28;20013;-74
2022/11/03 02:21:19;;;;;;;15.13;7.65;;;;;;;;;;5021440;28;20032;-74
2022/11/03 02:23:56;;;;;;;10.07;7.28;;;;;;;;;;5023044;28;20056;-74
2022/11/03 02:26:22;;;;;;;10.65;7.38;;;;;;;;;;5025095;28;20029;-73
2022/11/03 02:28:48;;;;;;;10.57;6.93;;;;;;;;;;5019025;28;20471;-73
2022/11/03 02:31:16;;;;;;;10.15;8.05;;;;;;;;;;5019703;28;20021;-73
2022/11/03 02:33:52;;;;;;;10.65;7.78;;;;;;;;;;5019208;28;20033;-72
2022/11/03 02:36:30;;;;;;;14.27;6.53;;;;;;;;;;5022237;28;20071;-73
2022/11/03 02:38:59;;;;;;;10.13;7.20;;;;;;;;;;5012598;28;20044;-73
2022/11/03 02:41:26;;;;;;;10.55;7.03;;;;;;;;;;5014005;28;20156;-73
2022/11/03 02:43:55;;;;;;;12.50;7.35;;;;;;;;;;5018542;28;20026;-73
2022/11/03 02:46:21;;;;;;;12.15;7.85;;;;;;;;;;5012860;28;20075;-72
2022/11/03 02:48:48;;;;;;;9.73;7.43;;;;;;;;;;5022759;28;20022;-73
2022/11/03 02:51:14;;;;;;;10.15;6.70;;;;;;;;;;5016356;28;20025;-73
2022/11/03 02:53:43;;;;;;;11.63;7.22;;;;;;;;;;5015372;28;20048;-73
2022/11/03 02:56:14;;;;;;;12.80;7.20;;;;;;;;;;5023545;28;20496;-72
2022/11/03 02:58:53;;;;;;;9.70;6.88;;;;;;;;;;5016892;28;20025;-72
2022/11/03 03:01:33;;;;;;;9.75;6.63;;;;;;;;;;5016340;28;20026;-73
2022/11/03 03:04:06;;;;;;;10.25;6.55;;;;;;;;;;5013385;28;20381;-73
2022/11/03 03:06:52;;;;;;;10.73;7.28;;;;;;;;;;5021268;28;20041;-73
2022/11/03 03:09:20;;;;;;;9.75;7.20;;;;;;;;;;5012653;28;20013;-72
2022/11/03 03:11:47;;;;;;;8.90;6.95;;;;;;;;;;5017336;28;20509;-73
2022/11/03 03:14:16;;;;;;;9.02;7.57;;;;;;;;;;5020635;28;20020;-73
2022/11/03 03:16:48;;;;;;;11.73;7.72;;;;;;;;;;5026025;28;20018;-72
2022/11/03 03:19:14;;;;;;;9.00;7.43;;;;;;;;;;5020484;28;20021;-73
2022/11/03 03:21:43;;;;;;;12.82;7.57;;;;;;;;;;5014015;28;20045;-73
2022/11/03 03:24:18;;;;;;;11.93;7.15;;;;;;;;;;5016519;28;20024;-73
2022/11/03 03:26:48;;;;;;;8.23;7.43;;;;;;;;;;5019504;28;20045;-73
2022/11/03 03:29:21;;;;;;;13.57;7.22;;;;;;;;;;5018054;28;20829;-72
2022/11/03 03:31:50;;;;;;;14.18;7.55;;;;;;;;;;5019020;28;20255;-73
2022/11/03 03:34:18;;;;;;;12.70;7.90;;;;;;;;;;5018967;28;20026;-73
2022/11/03 03:36:46;;;;;;;11.98;6.95;;;;;;;;;;5016271;28;20042;-73
2022/11/03 03:39:13;;;;;;;11.32;7.78;;;;;;;;;;5017695;28;20032;-73
2022/11/03 03:41:40;;;;;;;15.52;7.82;;;;;;;;;;5014237;28;20533;-73
2022/11/03 03:44:08;;;;;;;12.50;7.43;;;;;;;;;;5020972;28;20037;-73
2022/11/03 03:46:44;;;;;;;12.98;8.43;;;;;;;;;;5017538;28;20044;-73
2022/11/03 03:49:10;;;;;;;11.82;8.18;;;;;;;;;;5015808;28;20036;-73
2022/11/03 03:51:37;;;;;;;13.77;8.18;;;;;;;;;;5014761;28;20036;-72
2022/11/03 03:54:03;;;;;;;17.05;9.45;;;;;;;;;;5023780;28;20098;-73
2022/11/03 03:56:36;;;;;;;12.23;8.60;;;;;;;;;;5016310;28;20634;-72
2022/11/03 03:59:03;;;;;;;12.73;8.50;;;;;;;;;;5017648;28;20028;-73
2022/11/03 04:01:29;;;;;;;15.85;9.52;;;;;;;;;;5016337;28;20101;-72
2022/11/03 04:03:55;;;;;;;13.75;9.15;;;;;;;;;;5029057;28;20051;-72
2022/11/03 04:06:21;;;;;;;12.23;8.85;;;;;;;;;;5016363;28;20104;-73
2022/11/03 04:08:47;;;;;;;11.48;9.00;;;;;;;;;;5011769;28;20559;-73
2022/11/03 04:22:15;;;;;;;11.18;8.80;;;;;;;;;;5018960;28;20044;-73
2022/11/03 04:24:42;;;;;;;13.57;8.80;;;;;;;;;;5011049;28;20026;-73
2022/11/03 04:27:20;;;;;;;12.80;9.55;;;;;;;;;;5014158;28;20412;-72
2022/11/03 04:29:46;;;;;;;10.07;8.38;;;;;;;;;;5029181;28;20033;-72
2022/11/03 04:32:16;;;;;;;11.63;9.48;;;;;;;;;;5018395;28;20026;-73
2022/11/03 04:34:43;;;;;;;12.75;8.90;;;;;;;;;;5018068;28;20018;-73
2022/11/03 04:37:11;;;;;;;10.65;8.95;;;;;;;;;;5014167;28;20125;-73
2022/11/03 04:39:37;;;;;;;16.13;9.25;;;;;;;;;;5015446;28;20037;-73
2022/11/03 04:42:21;;;;;;;15.35;9.63;;;;;;;;;;5018467;28;20030;-73
2022/11/03 04:44:48;;;;;;;13.45;9.07;;;;;;;;;;5014053;28;20139;-73
2022/11/03 04:47:15;;;;;;;17.40;10.30;;;;;;;;;;5015673;28;20033;-73
2022/11/03 04:49:42;;;;;;;12.70;9.05;;;;;;;;;;5011079;28;20036;-73
2022/11/03 04:52:20;;;;;;;14.27;8.60;;;;;;;;;;5026348;28;20036;-73
2022/11/03 04:54:47;;;;;;;12.23;9.15;;;;;;;;;;5017258;28;20119;-73
2022/11/03 04:57:14;;;;;;;13.35;9.65;;;;;;;;;;5015742;28;20028;-72
2022/11/03 04:59:45;;;;;;;12.55;8.55;;;;;;;;;;5016172;28;20033;-72
2022/11/03 05:02:15;;;;;;;13.70;9.50;;;;;;;;;;5012212;28;20025;-72
2022/11/03 05:04:42;;;;;;;13.18;9.35;;;;;;;;;;5016499;28;20018;-72
2022/11/03 05:07:16;;;;;;;15.23;8.73;;;;;;;;;;5015028;28;20064;-72
2022/11/03 05:09:42;;;;;;;14.48;9.10;;;;;;;;;;5014319;28;20741;-73
2022/11/03 05:12:08;;;;;;;13.75;9.40;;;;;;;;;;5019106;28;20036;-72
2022/11/03 05:14:36;;;;;;;15.07;10.48;;;;;;;;;;5013178;28;20024;-72
2022/11/03 05:17:07;;;;;;;15.55;9.70;;;;;;;;;;5014333;28;20025;-74
2022/11/03 05:19:36;;;;;;;12.88;9.00;;;;;;;;;;5014056;28;20045;-73
2022/11/03 05:22:03;;;;;;;10.60;9.13;;;;;;;;;;5019058;28;20029;-72
2022/11/03 05:24:29;;;;;;;15.02;9.07;;;;;;;;;;5009240;28;20029;-73
2022/11/03 05:26:57;;;;;;;13.88;8.75;;;;;;;;;;5015546;28;20033;-72
2022/11/03 05:29:35;;;;;;;15.82;9.77;;;;;;;;;;5014460;28;20021;-72
2022/11/03 05:32:01;;;;;;;14.98;9.25;;;;;;;;;;5021230;28;20064;-72
2022/11/03 05:34:30;;;;;;;16.45;10.20;;;;;;;;;;5018985;28;20033;-72
2022/11/03 05:37:00;;;;;;;16.13;9.13;;;;;;;;;;5010208;28;20045;-72
2022/11/03 05:39:29;;;;;;;13.00;10.32;;;;;;;;;;5012231;28;20487;-72
2022/11/03 05:41:57;;;;;;;11.60;9.32;;;;;;;;;;5012132;28;20057;-73
2022/11/03 05:44:35;;;;;;;13.65;9.43;;;;;;;;;;5018526;28;20049;-73
2022/11/03 05:47:03;;;;;;;13.35;10.02;;;;;;;;;;5009127;28;20029;-73
2022/11/03 05:49:29;;;;;;;12.48;9.70;;;;;;;;;;5008647;28;20494;-73
2022/11/03 05:51:56;;;;;;;18.42;10.77;;;;;;;;;;5017485;28;20112;-74
2022/11/03 05:54:23;;;;;;;14.02;10.63;;;;;;;;;;5006872;28;20044;-73
2022/11/03 05:56:49;;;;;;;14.40;9.52;;;;;;;;;;5004176;28;20533;-74
2022/11/03 05:59:18;;;;;;;15.98;9.75;;;;;;;;;;5014993;28;20093;-74
2022/11/03 06:01:45;;;;;;;13.70;10.43;;;;;;;;;;5014697;28;20029;-74
2022/11/03 06:04:18;;;;;;;12.43;9.45;;;;;;;;;;5009905;28;20104;-74
2022/11/03 06:06:46;;;;;;;11.23;9.23;;;;;;;;;;5009286;28;20033;-75
2022/11/03 06:09:23;;;;;;;13.32;10.68;;;;;;;;;;5010401;28;20026;-74
2022/11/03 06:11:51;;;;;;;11.00;9.65;;;;;;;;;;5005048;28;20355;-74
2022/11/03 06:14:17;;;;;;;15.77;10.13;;;;;;;;;;5008691;28;20030;-74
2022/11/03 06:16:44;;;;;;;18.33;10.75;;;;;;;;;;5003259;28;20621;-74
2022/11/03 06:19:13;;;;;;;12.73;9.68;;;;;;;;;;5014035;28;20025;-74
2022/11/03 06:21:39;;;;;;;10.55;9.13;;;;;;;;;;5009141;28;20474;-74
2022/11/03 06:24:09;;;;;;;19.42;9.52;;;;;;;;;;5008220;28;20030;-74
2022/11/03 06:26:35;;;;;;;14.00;9.57;;;;;;;;;;5007059;28;20120;-75
2022/11/03 06:29:01;;;;;;;13.02;9.40;;;;;;;;;;5008907;28;20025;-74
2022/11/03 06:31:29;;;;;;;14.32;9.43;;;;;;;;;;5009261;28;20034;-74
2022/11/03 06:33:56;;;;;;;12.23;9.55;;;;;;;;;;5007851;28;20022;-74
2022/11/03 06:36:30;;;;;;;11.88;9.65;;;;;;;;;;5007058;28;20032;-77
2022/11/03 06:39:00;;;;;;;12.82;9.50;;;;;;;;;;5014403;28;20033;-74
2022/11/03 06:41:27;;;;;;;12.15;9.27;;;;;;;;;;5012798;28;20013;-75
2022/11/03 06:43:53;;;;;;;12.98;10.10;;;;;;;;;;5010739;28;20053;-75
2022/11/03 06:46:21;;;;;;;14.25;9.88;;;;;;;;;;5012488;28;20109;-74
2022/11/03 06:48:47;;;;;;;16.30;11.20;;;;;;;;;;5012831;28;20044;-75
2022/11/03 06:51:35;;;;;;;17.95;11.27;;;;;;;;;;5018221;28;20040;-75
2022/11/03 06:54:01;;;;;;;20.90;11.70;;;;;;;;;;5008353;28;20025;-74
2022/11/03 06:56:30;;;;;;;18.60;10.30;;;;;;;;;;5016154;28;20061;-75
2022/11/03 06:58:57;;;;;;;15.43;11.15;;;;;;;;;;5019223;28;20752;-73
2022/11/03 07:01:23;;;;;;;19.80;11.05;;;;;;;;;;5011720;28;20025;-73
2022/11/03 07:03:52;;;;;;;14.18;10.75;;;;;;;;;;5015672;28;20029;-73
2022/11/03 07:06:23;;;;;;;13.57;10.23;;;;;;;;;;5012736;28;20034;-72
2022/11/03 07:08:57;;;;;;;17.80;11.23;;;;;;;;;;5013601;28;20136;-74
2022/11/03 07:11:24;;;;;;;19.98;10.68;;;;;;;;;;5011340;28;20108;-72
2022/11/03 07:13:56;;;;;;;17.00;10.30;;;;;;;;;;5016529;28;20628;-73
2022/11/03 07:16:22;;;;;;;;;;;;;;;;;;5017470;28;20075;-73
2022/11/03 07:18:48;;;;;;;12.13;9.65;;;;;;;;;;5013172;28;20627;-73
2022/11/03 07:21:35;;;;;;;21.10;11.02;;;;;;;;;;5011120;28;20030;-73
2022/11/03 07:24:03;;;;;;;17.27;10.30;;;;;;;;;;5011058;28;20506;-73
2022/11/03 07:26:29;;;;;;;24.35;11.27;;;;;;;;;;5014936;28;20521;-74
2022/11/03 07:28:56;;;;;;;18.60;11.60;;;;;;;;;;5014858;28;20091;-73
2022/11/03 07:31:24;;;;;;;22.15;10.98;;;;;;;;;;5013378;28;20029;-73
2022/11/03 07:33:55;;;;;;;17.38;10.48;;;;;;;;;;5018774;28;20026;-73
2022/11/03 07:36:22;;;;;;;19.20;11.18;;;;;;;;;;5017084;28;20029;-73
2022/11/03 07:38:50;;;;;;;16.55;10.38;;;;;;;;;;5014779;28;20025;-73
2022/11/03 07:41:26;;;;;;;15.88;9.30;;;;;;;;;;5015440;28;20174;-75
2022/11/03 07:43:57;;;;;;;12.65;9.52;;;;;;;;;;5024360;28;20026;-72
2022/11/03 07:46:24;;;;;;;13.98;10.77;;;;;;;;;;5015752;28;20044;-73
2022/11/03 07:48:52;;;;;;;19.83;12.48;;;;;;;;;;5012064;28;20155;-73
2022/11/03 07:51:32;;;;;;;25.85;13.18;;;;;;;;;;5011697;28;20026;-73
2022/11/03 07:54:08;;;;;;;18.63;12.57;;;;;;;;;;5016685;28;20018;-73
2022/11/03 07:56:54;;;;;;;24.05;13.55;;;;;;;;;;5014260;28;20029;-75
2022/11/03 07:59:30;;;;;;;19.13;12.30;;;;;;;;;;5005147;28;20030;-74
2022/11/03 08:01:57;;;;;;;27.70;13.48;;;;;;;;;;5014511;28;20525;-74
2022/11/03 08:04:30;;;;;;;27.88;15.73;;;;;;;;;;5007610;28;20014;-75
2022/11/03 08:06:57;;;;;;;19.80;12.98;;;;;;;;;;5007460;28;20030;-73
2022/11/03 08:09:23;;;;;;;21.98;14.15;;;;;;;;;;5009682;28;20026;-73
2022/11/03 08:11:49;;;;;;;19.70;12.60;;;;;;;;;;5008192;28;20631;-73
2022/11/03 08:14:16;;;;;;;19.98;11.73;;;;;;;;;;5011141;28;20056;-73
2022/11/03 08:16:42;;;;;;;16.40;12.23;;;;;;;;;;5006245;28;20029;-73
2022/11/03 08:19:08;;;;;;;15.25;9.95;;;;;;;;;;5012354;28;20030;-73
2022/11/03 08:21:34;;;;;;;17.85;10.27;;;;;;;;;;5010892;28;20032;-73
2022/11/03 08:24:00;;;;;;;19.88;10.93;;;;;;;;;;5009130;28;20091;-73
2022/11/03 08:26:26;;;;;;;16.55;9.80;;;;;;;;;;5008624;28;20502;-73
2022/11/03 08:28:53;;;;;;;14.13;9.88;;;;;;;;;;5010148;28;20024;-73
2022/11/03 08:31:19;;;;;;;14.32;10.18;;;;;;;;;;5010423;28;20014;-73
2022/11/03 08:33:45;;;;;;;17.42;11.32;;;;;;;;;;5011263;28;20017;-73
2022/11/03 08:36:11;;;;;;;17.83;11.05;;;;;;;;;;5007977;28;20579;-74
2022/11/03 08:38:37;;;;;;;15.70;8.75;;;;;;;;;;5011273;28;20045;-73
2022/11/03 08:41:04;;;;;;;14.27;8.45;;;;;;;;;;5010021;28;20342;-73
2022/11/03 08:43:30;;;;;;;10.40;7.57;;;;;;;;;;5014317;28;20038;-73
2022/11/03 08:45:56;;;;;;;15.32;7.72;;;;;;;;;;5011757;28;20029;-73
2022/11/03 08:48:23;;;;;;;10.77;7.97;;;;;;;;;;5012867;28;20030;-73
2022/11/03 08:50:49;;;;;;;12.60;8.55;;;;;;;;;;5013435;28;20024;-73
2022/11/03 08:53:16;;;;;;;15.85;7.85;;;;;;;;;;5012296;28;20033;-73
2022/11/03 08:55:42;;;;;;;14.68;8.68;;;;;;;;;;5015942;28;20120;-73
2022/11/03 08:58:09;;;;;;;14.38;9.48;;;;;;;;;;5013186;28;20176;-73
2022/11/03 09:00:35;;;;;;;13.55;9.20;;;;;;;;;;5020711;28;20136;-74
2022/11/03 09:03:01;;;;;;;17.05;9.35;;;;;;;;;;5015465;28;20047;-73
2022/11/03 09:05:27;;;;;;;13.68;9.30;;;;;;;;;;5014650;28;20022;-73
2022/11/03 09:07:54;;;;;;;14.50;9.65;;;;;;;;;;5011570;28;20025;-73
2022/11/03 09:10:20;;;;;;;15.50;8.73;;;;;;;;;;5012497;28;20611;-73
2022/11/03 09:12:46;;;;;;;14.80;8.55;;;;;;;;;;5021179;28;20100;-74
2022/11/03 09:15:12;;;;;;;12.50;8.77;;;;;;;;;;5015751;28;20033;-73
2022/11/03 09:17:38;;;;;;;12.02;9.40;;;;;;;;;;5019433;28;20459;-73
2022/11/03 09:20:05;;;;;;;12.35;9.25;;;;;;;;;;5018229;28;20077;-73
2022/11/03 09:22:32;;;;;;;11.43;9.50;;;;;;;;;;5018933;28;20120;-73
2022/11/03 09:24:58;;;;;;;11.38;10.18;;;;;;;;;;5014753;28;20037;-72
2022/11/03 09:27:24;;;;;;;11.63;9.05;;;;;;;;;;5011699;28;20029;-73
2022/11/03 09:29:50;;;;;;;17.40;10.15;;;;;;;;;;5024680;28;20026;-73
2022/11/03 09:32:16;;;;;;;12.77;9.35;;;;;;;;;;5011831;28;20029;-73
2022/11/03 09:34:42;;;;;;;13.35;9.95;;;;;;;;;;5018524;28;20113;-73
2022/11/03 09:37:09;;;;;;;13.73;10.15;;;;;;;;;;5014087;28;20041;-72
2022/11/03 09:39:35;;;;;;;13.27;9.07;;;;;;;;;;5020056;28;20505;-73
2022/11/03 09:42:02;;;;;;;13.60;9.77;;;;;;;;;;5017032;28;20052;-73
2022/11/03 09:44:29;;;;;;;12.95;9.55;;;;;;;;;;5009547;28;20557;-73
2022/11/03 09:46:56;;;;;;;12.13;9.75;;;;;;;;;;5020170;28;20090;-73
2022/11/03 09:49:22;;;;;;;13.55;9.20;;;;;;;;;;5014260;28;20339;-73
2022/11/03 09:51:48;;;;;;;13.38;9.55;;;;;;;;;;5016955;28;20592;-73
2022/11/03 09:54:16;;;;;;;16.08;9.73;;;;;;;;;;5018008;28;20048;-74
2022/11/03 09:56:43;;;;;;;13.70;10.52;;;;;;;;;;5013824;28;20031;-74
2022/11/03 09:59:19;;;;;;;12.63;9.70;;;;;;;;;;5017241;28;20013;-72
2022/11/03 10:01:48;;;;;;;15.60;9.40;;;;;;;;;;5034106;28;20120;-73
2022/11/03 10:04:15;;;;;;;14.68;9.93;;;;;;;;;;5015074;28;20021;-73
2022/11/03 10:06:41;;;;;;;16.52;9.73;;;;;;;;;;5019343;28;20048;-74
2022/11/03 10:09:11;;;;;;;15.63;10.70;;;;;;;;;;5017182;28;20657;-72
2022/11/03 10:11:38;;;;;;;18.30;10.63;;;;;;;;;;5015858;28;20105;-73
2022/11/03 10:14:05;;;;;;;19.88;9.20;;;;;;;;;;5015951;28;20028;-72
2022/11/03 10:16:32;;;;;;;12.07;9.93;;;;;;;;;;5018493;28;20231;-73
2022/11/03 10:18:59;;;;;;;13.43;9.48;;;;;;;;;;5020293;28;20028;-74
2022/11/03 10:21:27;;;;;;;14.88;9.43;;;;;;;;;;5011828;28;20136;-73
2022/11/03 10:23:53;;;;;;;15.70;10.60;;;;;;;;;;5015295;28;20014;-73
2022/11/03 10:26:20;;;;;;;14.35;9.10;;;;;;;;;;5015689;28;20497;-73
2022/11/03 10:28:59;;;;;;;16.65;9.98;;;;;;;;;;5018105;28;20488;-74
2022/11/03 10:31:31;;;;;;;13.30;10.60;;;;;;;;;;5015648;28;20052;-73
2022/11/03 10:33:57;;;;;;;17.48;9.93;;;;;;;;;;5018048;28;20127;-73
2022/11/03 10:36:28;;;;;;;12.88;10.52;;;;;;;;;;5015905;28;20030;-73
2022/11/03 10:38:54;;;;;;;10.63;9.13;;;;;;;;;;5016056;28;20474;-73
2022/11/03 10:41:28;;;;;;;15.93;9.70;;;;;;;;;;5015936;28;20556;-73
2022/11/03 10:44:04;;;;;;;12.63;9.68;;;;;;;;;;5019286;28;20073;-74
2022/11/03 10:46:32;;;;;;;12.55;9.82;;;;;;;;;;5017124;28;20346;-74
2022/11/03 10:49:06;;;;;;;12.02;10.05;;;;;;;;;;5020533;28;20539;-72
2022/11/03 10:51:33;;;;;;;14.95;9.48;;;;;;;;;;5014294;28;20104;-72
2022/11/03 10:53:59;;;;;;;15.85;10.30;;;;;;;;;;5019398;28;20432;-73
2022/11/03 10:56:25;;;;;;;12.27;9.55;;;;;;;;;;5015323;28;20021;-73
2022/11/03 10:58:52;;;;;;;11.25;8.80;;;;;;;;;;5018466;28;20020;-76
2022/11/03 11:01:18;;;;;;;12.75;9.07;;;;;;;;;;5015006;28;20025;-76
2022/11/03 11:03:45;;;;;;;15.50;10.45;;;;;;;;;;5010404;28;20022;-74
2022/11/03 11:06:37;;;;;;;11.70;9.90;;;;;;;;;;5019040;28;20033;-74
2022/11/03 11:09:04;;;;;;;14.00;10.73;;;;;;;;;;5012320;28;20041;-76
2022/11/03 11:11:30;;;;;;;14.00;10.90;;;;;;;;;;5014306;28;20071;-77
2022/11/03 11:14:15;;;;;;;14.25;10.65;;;;;;;;;;5013883;28;20033;-74
2022/11/03 11:16:49;;;;;;;11.60;10.20;;;;;;;;;;5016433;28;20060;-76
2022/11/03 11:19:15;;;;;;;12.13;9.68;;;;;;;;;;5016996;28;20033;-75
2022/11/03 11:21:41;;;;;;;14.57;10.25;;;;;;;;;;5014898;28;20517;-76
2022/11/03 11:24:11;;;;;;;17.45;10.40;;;;;;;;;;5011496;28;20041;-74
2022/11/03 11:26:38;;;;;;;13.30;10.55;;;;;;;;;;5015818;28;20033;-82
2022/11/03 11:29:07;;;;;;;14.55;10.07;;;;;;;;;;5019184;28;20413;-78
2022/11/03 11:31:34;;;;;;;12.77;10.45;;;;;;;;;;5012453;28;20654;-77
2022/11/03 11:34:11;;;;;;;14.77;10.13;;;;;;;;;;5023416;28;20063;-76
2022/11/03 11:36:41;;;;;;;11.32;10.00;;;;;;;;;;5012901;28;20116;-74
2022/11/03 11:39:19;;;;;;;15.27;10.23;;;;;;;;;;5014649;28;20029;-78
2022/11/03 11:42:05;;;;;;;14.45;10.50;;;;;;;;;;5014630;28;20147;-78
2022/11/03 11:44:44;;;;;;;11.25;9.70;;;;;;;;;;5012913;28;20025;-79
2022/11/03 11:47:30;;;;;;;13.00;10.07;;;;;;;;;;5014801;28;20592;-78
2022/11/03 11:50:05;;;;;;;15.18;10.80;;;;;;;;;;5009632;28;20725;-78
2022/11/03 11:52:38;;;;;;;13.38;10.23;;;;;;;;;;5012856;28;20090;-78
2022/11/03 11:55:05;;;;;;;12.73;10.40;;;;;;;;;;5016628;28;20025;-76
2022/11/03 11:57:33;;;;;;;16.38;10.82;;;;;;;;;;5011305;28;20255;-77
2022/11/03 11:59:59;;;;;;;13.73;10.05;;;;;;;;;;5014287;28;20025;-74
2022/11/03 12:02:28;;;;;;;13.10;9.77;;;;;;;;;;5013216;28;20025;-76
2022/11/03 12:05:02;;;;;;;13.73;10.02;;;;;;;;;;5015815;28;20021;-75
2022/11/03 12:07:35;;;;;;;12.20;10.85;;;;;;;;;;5013439;28;20034;-75
2022/11/03 12:10:08;;;;;;;13.80;10.65;;;;;;;;;;5015507;28;20028;-75
2022/11/03 12:12:35;;;;;;;15.65;10.73;;;;;;;;;;5011747;28;20021;-75
2022/11/03 12:15:01;;;;;;;13.70;10.60;;;;;;;;;;5010822;28;20021;-74
2022/11/03 12:17:27;;;;;;;11.02;9.40;;;;;;;;;;5014818;28;20028;-74
2022/11/03 12:19:53;;;;;;;12.68;10.80;;;;;;;;;;5013968;28;20026;-75
2022/11/03 12:22:23;;;;;;;17.27;11.20;;;;;;;;;;5021752;28;20105;-74
2022/11/03 12:24:53;;;;;;;12.93;10.35;;;;;;;;;;5011649;28;20593;-73
2022/11/03 12:27:39;;;;;;;13.38;10.68;;;;;;;;;;5015152;28;20074;-74
2022/11/03 12:30:13;;;;;;;13.00;10.13;;;;;;;;;;5026155;28;20482;-74
2022/11/03 12:32:39;;;;;;;18.42;10.77;;;;;;;;;;5015083;28;20608;-74
2022/11/03 12:35:07;;;;;;;15.98;11.50;;;;;;;;;;5014537;28;20041;-75
2022/11/03 12:37:33;;;;;;;12.63;10.45;;;;;;;;;;5011504;28;20095;-74
2022/11/03 12:39:59;;;;;;;17.77;11.15;;;;;;;;;;5017429;28;20294;-74
2022/11/03 12:42:25;;;;;;;14.30;11.60;;;;;;;;;;5014995;28;20029;-74
2022/11/03 12:44:52;;;;;;;12.57;11.25;;;;;;;;;;5014599;28;20022;-76
2022/11/03 12:47:19;;;;;;;12.85;10.38;;;;;;;;;;5015756;28;20109;-74
2022/11/03 12:49:45;;;;;;;12.00;10.23;;;;;;;;;;5011596;28;20080;-74
2022/11/03 12:52:11;;;;;;;13.32;10.60;;;;;;;;;;5022055;28;20056;-74
2022/11/03 12:54:38;;;;;;;14.10;10.80;;;;;;;;;;5018662;28;20029;-73
2022/11/03 12:57:04;;;;;;;13.55;10.45;;;;;;;;;;5014521;28;20155;-76
2022/11/03 12:59:30;;;;;;;17.17;12.05;;;;;;;;;;5019215;28;20352;-75
2022/11/03 13:01:56;;;;;;;12.40;10.63;;;;;;;;;;5045041;28;20025;-77
2022/11/03 13:04:23;;;;;;;16.30;11.02;;;;;;;;;;5020857;28;20509;-75
2022/11/03 13:06:49;;;;;;;14.73;11.30;;;;;;;;;;5017550;28;20037;-74
2022/11/03 13:09:15;;;;;;;14.35;11.55;;;;;;;;;;5022009;28;20033;-74
2022/11/03 13:14:43;;;;;;;15.43;11.57;;;;;;;;;;5011948;28;20034;-73
2022/11/03 13:17:09;;;;;;;13.82;10.82;;;;;;;;;;5016709;28;20790;-75
2022/11/03 13:19:35;;;;;;;12.52;11.18;;;;;;;;;;5023817;28;20025;-75
2022/11/03 13:22:02;;;;;;;13.73;11.38;;;;;;;;;;5018305;28;20029;-73
2022/11/03 13:24:28;;;;;;;13.05;11.60;;;;;;;;;;5014328;28;20110;-75
2022/11/03 13:26:54;;;;;;;14.82;11.75;;;;;;;;;;5014245;28;20067;-75
2022/11/03 13:29:21;;;;;;;14.18;10.63;;;;;;;;;;5021991;28;20021;-73
2022/11/03 13:31:47;;;;;;;11.80;10.70;;;;;;;;;;5020077;28;20084;-74
2022/11/03 13:34:13;;;;;;;14.68;11.23;;;;;;;;;;5018124;28;20040;-74
2022/11/03 13:36:39;;;;;;;12.13;10.82;;;;;;;;;;5012922;28;20018;-76
2022/11/03 13:39:05;;;;;;;14.55;11.63;;;;;;;;;;5017743;28;20052;-75
2022/11/03 13:41:31;;;;;;;14.90;11.23;;;;;;;;;;5016234;28;20155;-75
2022/11/03 13:43:57;;;;;;;15.25;11.43;;;;;;;;;;5017115;28;20101;-75
2022/11/03 13:46:24;;;;;;;13.05;11.57;;;;;;;;;;5018695;28;20029;-76
2022/11/03 13:48:50;;;;;;;16.48;12.77;;;;;;;;;;5019186;28;20025;-76
2022/11/03 13:51:17;;;;;;;17.15;12.88;;;;;;;;;;5014553;28;20023;-74
2022/11/03 13:53:43;;;;;;;16.50;12.35;;;;;;;;;;5016138;28;20108;-75
2022/11/03 13:56:10;;;;;;;16.08;11.82;;;;;;;;;;5013694;28;20056;-76
2022/11/03 13:58:36;;;;;;;15.98;11.68;;;;;;;;;;5016257;28;20025;-77
2022/11/03 14:01:02;;;;;;;14.38;11.90;;;;;;;;;;5012655;28;20030;-77
2022/11/03 14:03:28;;;;;;;18.67;12.35;;;;;;;;;;5017726;28;20106;-74
2022/11/03 14:05:54;;;;;;;22.85;12.82;;;;;;;;;;5021700;28;20017;-74
2022/11/03 14:08:20;;;;;;;17.73;13.38;;;;;;;;;;5024220;28;20021;-73
2022/11/03 14:10:47;;;;;;;17.65;12.13;;;;;;;;;;5019921;28;20111;-73
2022/11/03 14:13:13;;;;;;;30.38;12.52;;;;;;;;;;5014179;28;20029;-74
2022/11/03 14:15:39;;;;;;;15.82;12.05;;;;;;;;;;5016915;28;20025;-74
2022/11/03 14:18:05;;;;;;;16.63;12.35;;;;;;;;;;5022074;28;20025;-75
2022/11/03 14:20:31;;;;;;;20.75;12.60;;;;;;;;;;5022712;28;20025;-75
2022/11/03 14:22:57;;;;;;;14.00;12.48;;;;;;;;;;5021874;28;20048;-75
2022/11/03 14:25:23;;;;;;;15.32;11.93;;;;;;;;;;5016774;28;20555;-76
2022/11/03 14:27:50;;;;;;;16.63;12.15;;;;;;;;;;5017097;28;20095;-75
2022/11/03 14:30:16;;;;;;;17.08;12.68;;;;;;;;;;5017078;28;20024;-75
2022/11/03 14:32:42;;;;;;;14.40;12.68;;;;;;;;;;5015508;28;20127;-75
2022/11/03 14:35:09;;;;;;;18.80;12.38;;;;;;;;;;5016512;28;20109;-81
2022/11/03 14:37:35;;;;;;;15.70;12.73;;;;;;;;;;5019933;28;20130;-80
2022/11/03 14:40:01;;;;;;;15.75;12.45;;;;;;;;;;5016098;28;20032;-78
2022/11/03 14:42:27;;;;;;;16.20;12.52;;;;;;;;;;5019886;28;20422;-80
2022/11/03 14:44:53;;;;;;;13.90;11.95;;;;;;;;;;5017211;28;20029;-79
2022/11/03 14:47:20;;;;;;;19.70;12.70;;;;;;;;;;5016544;28;20087;-73
2022/11/03 14:49:47;;;;;;;19.02;13.25;;;;;;;;;;5011785;28;20037;-75
2022/11/03 14:52:14;;;;;;;16.23;13.25;;;;;;;;;;5014148;28;20604;-74